LIMJLFLP

Guest
Details From LIMJ - Genova Sestri
To LFLP - Annecy Haute-Sovoie Mont Blanc Meythet
Flight Number -
Tags generated
Created
Modified
Stats Distance 148 nm / 273 km
Max Altitude 14,800 ft / 4,511 m
Waypoints 3
Social Downloads 0
Likes 0
Share VATSIM

Download

Looking for another format? Having issues loading an existing format? Contact us
Advertisement - Login to hide

Notes

Basic altitude profile: - Ascent Rate: 2500ft/min - Ascent Speed: 250kts - Cruise Altitude: 35000ft - Cruise Speed: 420kts - Descent Rate: 1500ft/min - Descent Speed: 250kts

Route

LIMJ ABROR LFLP

ID Type Via Altitude Latitude Longitude Leg Dist Tot Dist Heading (true) Name
O LIMJ APT - 0 ft / 0 m 44.41196˚ 8.84187˚ - 0 nm - Genova Sestri
ABROR FIX - 14,800 ft / 4,511 m 45.22972˚ 7.41611˚ 78 nm 78 nm 309° / 308° -
O LFLP APT - 0 ft / 0 m 45.92882˚ 6.09960˚ 69 nm 147 nm 308° / 307° Annecy Haute-Sovoie Mont Blanc Meythet

Altitude Profile

Advertisement - Login to hide

LIMJ

Details ICAO LIMJ (GOA)
Name Genova Sestri
Region Italy
Timezone Unknown (UTC+0.0)
Stats Elevation 13 ft / 4 m (AMSL)
Location 44.411957° 8.841866°
Runways 1
Magnetic Variation 2.388° E

METAR

LIMJ 160850Z 35006KT 310V060 9999 FEW023 BKN055 10/M06 Q1004

Decode

TAF

TAF LIMJ 160500Z 1606/1706 03007KT CAVOK

Decode

Departure Runways

ID Width Length Bearing (true) Bearing (mag) Surface Threshold Offset Overrun Length
10 148 ft / 45 m 9,574 ft / 2,918 m 105.39° 103.00° Asphalt 0 ft / 0 m 0 ft / 0 m
28 148 ft / 45 m 9,574 ft / 2,918 m 285.41° 283.02° Asphalt 538 ft / 164 m 0 ft / 0 m

LFLP

Details ICAO LFLP (NCY)
Name Annecy Haute-Sovoie Mont Blanc Meythet
Region France
Timezone Europe/Paris (UTC+1.0)
Stats Elevation 1,520 ft / 463 m (AMSL)
Location 45.928820° 6.099601°
Runways 2
Magnetic Variation 1.741° E

METAR

LFLP 160900Z AUTO 00000KT 9999 OVC018 01/00 Q1012 TEMPO 4000 -SN BR BKN012

Decode

TAF

TAF LFLP 160800Z 1609/1709 VRB03KT 9999 OVC020 PROB40 TEMPO 1609/1612 4000 -SN BR BKN012 PROB40 TEMPO 1620/1703 2000 -SHSN BKN005

Decode

Destination Runways

ID Width Length Bearing (true) Bearing (mag) Surface Threshold Offset Overrun Length
04 98 ft / 30 m 5,290 ft / 1,612 m 38.51° 36.77° Asphalt 820 ft / 250 m 0 ft / 0 m
22 98 ft / 30 m 5,290 ft / 1,612 m 218.52° 216.78° Asphalt 755 ft / 230 m 0 ft / 0 m
22C 230 ft / 70 m 2,783 ft / 848 m 218.40° 216.66° Grass 0 ft / 0 m 0 ft / 0 m
4C 230 ft / 70 m 2,783 ft / 848 m 38.40° 36.66° Grass 0 ft / 0 m 0 ft / 0 m

Approach Navaids

Runway Type Ident Frequency Range Bearing (true) Bearing (mag) Slope Elevation
04 Localiser ANM 108.90 MHz 27 nm / 50 km 38.56° 36.82° - 1,520 ft / 463 m (AMSL)
04 Glidescope ANM 108.90 MHz 10 nm / 19 km 38.51° 36.77° 3.68° 1,529 ft / 466 m (AMSL)
04 DME ANM 108.90 MHz 27 nm / 50 km - - - 1,520 ft / 463 m (AMSL)

Popular Alternatives